Denison, Texas
Current Conditions -  °F | °C
As of 2:15 PM on Thursday 23 Oct 2014 (Local Time) from KGYI Reporting Station
Clear Clear  
Wind Chill: 75°   Ceiling: Unl
Heat Index: 75°   Visibility: 10mi
Dew Point: 61°   Wind: 6mph
Humidity: 63%   Direction: 190°S
Pressure: 30.12"   Gusts: NA
Location:  33.76°N, 96.54°W
Report Text: KGYI 231915Z AUTO 19005KT 10SM CLR 24/16 A3012 RMK AO2 T02370162
Loading
Personal Weather Stations






























Interactive Weather Map
Tropical Storm Tracking
New forecast layout! Learn more

10-Day Weather Forecast

Advertisements
Track Severe Weather on mobile